createdAt,value
2023-02-14T00:00:53.625Z,100648.70
2023-02-14T00:04:15.209Z,100649.12
2023-02-14T00:07:44.134Z,100650.57
2023-02-14T00:11:13.116Z,100651.99
2023-02-14T00:14:40.028Z,100659.20
2023-02-14T00:18:07.371Z,100658.34
2023-02-14T00:21:36.209Z,100664.21
2023-02-14T00:25:07.910Z,100662.14
2023-02-14T00:28:36.796Z,100662.85
2023-02-14T00:32:05.752Z,100663.41
2023-02-14T00:35:34.488Z,100663.06
2023-02-14T00:39:04.586Z,100657.43
2023-02-14T00:42:33.323Z,100652.61
2023-02-14T00:46:02.672Z,100647.02
2023-02-14T00:49:31.575Z,100651.00
2023-02-14T00:52:45.856Z,100646.30
2023-02-14T00:56:14.593Z,100641.45
2023-02-14T00:59:26.109Z,100638.42
2023-02-14T01:02:48.073Z,100635.40
2023-02-14T01:06:16.825Z,100636.03
2023-02-14T01:09:45.968Z,100632.30
2023-02-14T01:13:14.690Z,100634.08
2023-02-14T01:16:44.107Z,100641.35
2023-02-14T01:20:13.537Z,100645.52
2023-02-14T01:23:43.628Z,100651.77
2023-02-14T01:27:13.025Z,100654.21
2023-02-14T01:30:42.363Z,100657.45
2023-02-14T01:34:04.463Z,100656.77
2023-02-14T01:37:33.738Z,100674.46
2023-02-14T01:41:02.862Z,100671.05
2023-02-14T01:44:31.781Z,100676.17
2023-02-14T01:48:03.031Z,100684.45
2023-02-14T01:51:34.606Z,100683.06
2023-02-14T01:55:03.352Z,100689.77
2023-02-14T01:58:32.106Z,100695.83
2023-02-14T02:02:00.669Z,100702.23
2023-02-14T02:05:28.524Z,100705.72
2023-02-14T02:12:39.337Z,100710.35
2023-02-14T02:16:08.860Z,100721.48
2023-02-14T02:19:53.287Z,100730.05
2023-02-14T02:23:20.982Z,100733.98
2023-02-14T02:26:50.142Z,100735.27
2023-02-14T02:30:28.109Z,100733.83
2023-02-14T02:34:01.726Z,100741.89
2023-02-14T02:37:46.058Z,100752.17
2023-02-14T02:41:24.000Z,100754.37
2023-02-14T02:44:58.872Z,100762.52
2023-02-14T02:48:48.497Z,100761.60
2023-02-14T02:52:54.699Z,100759.16
2023-02-14T02:56:12.293Z,100754.37
2023-02-14T02:59:55.675Z,100748.47
2023-02-14T03:03:32.077Z,100746.48
2023-02-14T03:07:00.936Z,100740.24
2023-02-14T03:10:33.237Z,100743.32
2023-02-14T03:14:20.547Z,100744.00
2023-02-14T03:17:49.610Z,100751.44
2023-02-14T03:21:18.945Z,100739.55
2023-02-14T03:24:50.896Z,100744.17
2023-02-14T03:28:38.138Z,100760.21
2023-02-14T03:32:10.532Z,100762.41
2023-02-14T03:36:07.077Z,100784.45
2023-02-14T03:39:48.150Z,100796.70
2023-02-14T03:43:17.329Z,100806.09
2023-02-14T03:46:49.068Z,100817.70
2023-02-14T03:50:17.940Z,100819.55
2023-02-14T03:53:46.041Z,100826.77
2023-02-14T03:57:18.177Z,100841.30
2023-02-14T04:00:47.663Z,100845.77
2023-02-14T04:04:16.648Z,100854.55
2023-02-14T04:07:51.967Z,100852.11
2023-02-14T04:11:22.122Z,100853.24
2023-02-14T04:14:52.344Z,100868.12
2023-02-14T04:17:59.514Z,100885.90
2023-02-14T04:21:28.767Z,100895.98
2023-02-14T04:24:58.024Z,100915.05
2023-02-14T04:28:20.719Z,100919.54
2023-02-14T04:31:50.426Z,100925.30
2023-02-14T04:35:19.508Z,100936.57
2023-02-14T04:38:48.874Z,100946.25
2023-02-14T04:42:08.176Z,100953.46
2023-02-14T04:45:37.352Z,100956.63
2023-02-14T04:49:06.545Z,100965.96
2023-02-14T04:52:21.936Z,100966.55
2023-02-14T04:55:51.099Z,100965.91
2023-02-14T04:59:20.547Z,100968.63
2023-02-14T05:02:49.952Z,100973.41
2023-02-14T05:06:18.890Z,100971.61
2023-02-14T05:09:48.277Z,100956.19
2023-02-14T05:13:17.299Z,100946.27
2023-02-14T05:16:46.386Z,100947.58
2023-02-14T05:20:15.734Z,100939.83
2023-02-14T05:23:45.001Z,100927.27
2023-02-14T05:27:13.368Z,100930.88
2023-02-14T05:30:42.813Z,100927.03
2023-02-14T05:34:11.998Z,100923.27
2023-02-14T05:37:44.522Z,100918.98
2023-02-14T05:40:51.733Z,100919.06
2023-02-14T05:44:20.924Z,100911.91
2023-02-14T05:47:50.203Z,100920.58
2023-02-14T05:51:19.254Z,100922.64
2023-02-14T05:54:41.573Z,100925.27
2023-02-14T05:58:10.823Z,100918.14
2023-02-14T06:01:36.897Z,100915.83
2023-02-14T06:05:05.853Z,100916.27
2023-02-14T06:08:34.896Z,100917.91
2023-02-14T06:12:04.066Z,100923.36
2023-02-14T06:15:33.493Z,100927.08
2023-02-14T06:19:02.677Z,100933.39
2023-02-14T06:22:31.930Z,100940.84
2023-02-14T06:26:01.051Z,100948.05
2023-02-14T06:29:30.005Z,100958.84
2023-02-14T06:32:59.087Z,100961.38
2023-02-14T06:36:18.500Z,100968.34
2023-02-14T06:39:47.835Z,100976.96
2023-02-14T06:43:17.221Z,100990.14
2023-02-14T06:46:38.707Z,100994.06
2023-02-14T06:50:07.894Z,100998.05
2023-02-14T06:53:37.591Z,101000.56
2023-02-14T06:57:08.443Z,101006.55
2023-02-14T07:00:37.755Z,101008.04
2023-02-14T07:04:09.534Z,101007.20
2023-02-14T07:07:19.341Z,101010.25
2023-02-14T07:10:38.901Z,101017.67
2023-02-14T07:14:07.268Z,101024.87
2023-02-14T07:17:36.352Z,101038.69
2023-02-14T07:21:05.296Z,101041.45
2023-02-14T07:24:34.109Z,101040.38
2023-02-14T07:27:45.528Z,101036.92
2023-02-14T07:31:15.212Z,101043.35
2023-02-14T07:34:44.747Z,101043.09
2023-02-14T07:38:52.510Z,101036.13
2023-02-14T07:42:04.032Z,101035.30
2023-02-14T07:45:32.990Z,101031.20
2023-02-14T07:49:02.297Z,101026.64
2023-02-14T07:52:31.463Z,101031.79
2023-02-14T07:56:00.239Z,101041.95
2023-02-14T07:59:29.393Z,101044.84
2023-02-14T08:02:58.324Z,101048.10
2023-02-14T08:06:27.426Z,101049.00
2023-02-14T08:09:56.667Z,101049.12
2023-02-14T08:13:35.001Z,101040.21
2023-02-14T08:17:04.278Z,101043.88
2023-02-14T08:20:26.946Z,101044.59
2023-02-14T08:23:56.411Z,101048.64
2023-02-14T08:27:25.612Z,101053.95
2023-02-14T08:30:44.369Z,101059.48
2023-02-14T08:33:56.849Z,101064.12
2023-02-14T08:37:25.837Z,101063.20
2023-02-14T08:40:54.403Z,101074.25
2023-02-14T08:44:16.647Z,101080.96
2023-02-14T08:47:36.321Z,101082.87
2023-02-14T08:50:55.358Z,101089.38
2023-02-14T08:54:24.207Z,101093.08
2023-02-14T08:57:53.288Z,101096.76
2023-02-14T09:01:22.948Z,101098.31
2023-02-14T09:04:52.233Z,101099.98
2023-02-14T09:08:21.555Z,101103.66
2023-02-14T09:11:53.312Z,101112.48
2023-02-14T09:15:22.946Z,101114.89
2023-02-14T09:18:52.105Z,101111.33
2023-02-14T09:22:19.461Z,101115.52
2023-02-14T09:25:48.289Z,101115.75
2023-02-14T09:29:17.446Z,101119.10
2023-02-14T09:32:46.696Z,101119.55
2023-02-14T09:36:15.806Z,101122.60
2023-02-14T09:39:45.005Z,101115.50
2023-02-14T09:43:23.194Z,101113.73
2023-02-14T09:46:55.614Z,101109.06
2023-02-14T09:50:34.031Z,101105.41
2023-02-14T09:54:08.656Z,101107.07
2023-02-14T09:57:43.484Z,101106.39
2023-02-14T10:01:15.785Z,101108.61
2023-02-14T10:04:52.986Z,101109.61
2023-02-14T10:08:40.163Z,101110.77
2023-02-14T10:12:09.525Z,101105.77
2023-02-14T10:15:38.887Z,101107.72
2023-02-14T10:19:23.128Z,101108.20
2023-02-14T10:22:55.494Z,101108.55
2023-02-14T10:26:36.816Z,101110.60
2023-02-14T10:30:06.151Z,101115.18
2023-02-14T10:33:38.387Z,101121.20
2023-02-14T10:37:16.695Z,101125.23
2023-02-14T10:40:48.543Z,101132.98
2023-02-14T10:44:20.046Z,101135.97
2023-02-14T10:47:51.949Z,101137.73
2023-02-14T10:51:20.932Z,101142.86
2023-02-14T10:54:48.405Z,101152.55
2023-02-14T10:58:17.761Z,101152.52
2023-02-14T11:01:53.013Z,101152.71
2023-02-14T11:05:22.470Z,101152.70
2023-02-14T11:08:51.020Z,101157.00
2023-02-14T11:12:26.163Z,101155.84
2023-02-14T11:16:10.066Z,101157.27
2023-02-14T11:19:51.328Z,101161.98
2023-02-14T11:23:20.511Z,101165.94
2023-02-14T11:26:52.617Z,101175.46
2023-02-14T11:30:24.876Z,101176.29
2023-02-14T11:34:05.514Z,101180.19
2023-02-14T11:37:34.850Z,101177.69
2023-02-14T11:41:15.840Z,101180.45
2023-02-14T11:44:47.442Z,101180.08
2023-02-14T11:48:36.730Z,101183.14
2023-02-14T11:52:16.537Z,101183.30
2023-02-14T11:55:45.845Z,101183.33
2023-02-14T11:59:15.351Z,101193.42
2023-02-14T12:02:44.831Z,101197.17
2023-02-14T12:06:26.067Z,101205.66
2023-02-14T12:09:45.864Z,101212.38
2023-02-14T12:13:18.385Z,101219.58
2023-02-14T12:16:50.485Z,101227.05
2023-02-14T12:20:13.216Z,101234.73
2023-02-14T12:23:42.328Z,101237.55
2023-02-14T12:27:17.523Z,101249.23
2023-02-14T12:30:41.369Z,101253.45
2023-02-14T12:34:16.517Z,101259.60
2023-02-14T12:37:56.053Z,101271.26
2023-02-14T12:41:52.387Z,101279.24
2023-02-14T12:45:36.369Z,101285.27
2023-02-14T12:49:10.535Z,101296.27
2023-02-14T12:52:40.680Z,101303.54
2023-02-14T12:56:19.212Z,101307.63
2023-02-14T12:59:47.583Z,101311.90
2023-02-14T13:03:27.845Z,101323.46
2023-02-14T13:06:46.212Z,101327.85
2023-02-14T13:10:28.641Z,101334.48
2023-02-14T13:14:04.916Z,101343.20
2023-02-14T13:17:16.486Z,101345.48
2023-02-14T13:20:34.961Z,101348.39
2023-02-14T13:24:22.521Z,101357.59
2023-02-14T13:27:54.159Z,101362.68
2023-02-14T13:31:19.897Z,101373.27
2023-02-14T13:34:48.894Z,101377.61
2023-02-14T13:38:18.252Z,101376.78
2023-02-14T13:41:47.773Z,101384.14
2023-02-14T13:45:23.746Z,101386.48
2023-02-14T13:48:52.850Z,101398.02
2023-02-14T13:52:28.325Z,101408.19
2023-02-14T13:56:04.205Z,101413.61
2023-02-14T13:59:39.234Z,101413.16
2023-02-14T14:03:23.775Z,101423.15
2023-02-14T14:06:53.105Z,101430.81
2023-02-14T14:10:25.088Z,101450.33
2023-02-14T14:13:53.264Z,101452.71
2023-02-14T14:17:24.938Z,101459.41
2023-02-14T14:21:03.337Z,101448.65
2023-02-14T14:24:44.455Z,101453.79
2023-02-14T14:28:16.825Z,101462.13
2023-02-14T14:31:46.016Z,101466.24
2023-02-14T14:35:21.396Z,101473.52
2023-02-14T14:38:50.534Z,101482.98
2023-02-14T14:42:19.576Z,101488.95
2023-02-14T14:45:51.493Z,101495.84
2023-02-14T14:49:36.008Z,101500.86
2023-02-14T14:53:07.876Z,101509.56
2023-02-14T14:56:36.949Z,101523.27
2023-02-14T15:00:04.312Z,101534.65
2023-02-14T15:03:48.942Z,101535.67
2023-02-14T15:07:18.059Z,101541.60
2023-02-14T15:10:47.448Z,101546.73
2023-02-14T15:14:12.660Z,101555.73
2023-02-14T15:17:47.098Z,101568.05
2023-02-14T15:21:15.941Z,101576.84
2023-02-14T15:24:45.362Z,101587.09
2023-02-14T15:28:23.052Z,101602.05
2023-02-14T15:31:32.408Z,101604.80
2023-02-14T15:34:33.741Z,101600.96
2023-02-14T15:38:02.404Z,101606.30
2023-02-14T15:41:31.739Z,101615.26
2023-02-14T15:45:01.137Z,101619.67
2023-02-14T15:48:30.209Z,101626.31
2023-02-14T15:52:01.836Z,101633.57
2023-02-14T15:55:40.253Z,101638.24
2023-02-14T15:59:08.495Z,101643.37
2023-02-14T16:02:37.879Z,101652.87
2023-02-14T16:06:07.413Z,101660.48
2023-02-14T16:09:36.593Z,101667.94
2023-02-14T16:13:21.416Z,101679.30
2023-02-14T16:17:00.241Z,101682.08
2023-02-14T16:20:38.931Z,101688.61
2023-02-14T16:24:18.155Z,101693.14
2023-02-14T16:27:46.208Z,101705.41
2023-02-14T16:31:17.480Z,101713.90
2023-02-14T16:34:45.747Z,101726.95
2023-02-14T16:38:20.886Z,101733.84
2023-02-14T16:41:50.015Z,101739.02
2023-02-14T16:45:12.484Z,101745.70
2023-02-14T16:48:41.558Z,101754.86
2023-02-14T16:52:10.449Z,101765.40
2023-02-14T16:55:39.801Z,101767.15
2023-02-14T16:59:11.538Z,101769.47
2023-02-14T17:02:42.588Z,101780.30
2023-02-14T17:06:13.014Z,101791.85
2023-02-14T17:09:42.173Z,101795.65
2023-02-14T17:13:11.134Z,101788.36
2023-02-14T17:16:40.310Z,101793.67
2023-02-14T17:20:09.935Z,101798.39
2023-02-14T17:23:38.669Z,101802.66
2023-02-14T17:27:07.907Z,101806.70
2023-02-14T17:31:06.292Z,101803.91
2023-02-14T17:34:25.482Z,101810.34
2023-02-14T17:37:54.875Z,101815.40
2023-02-14T17:41:24.467Z,101818.08
2023-02-14T17:44:53.835Z,101822.91
2023-02-14T17:48:23.328Z,101822.58
2023-02-14T17:51:52.530Z,101825.62
2023-02-14T17:55:21.981Z,101828.98
2023-02-14T17:58:51.152Z,101838.09
2023-02-14T18:02:20.143Z,101850.86
2023-02-14T18:05:49.615Z,101855.71
2023-02-14T18:09:18.976Z,101865.02
2023-02-14T18:12:46.691Z,101869.92
2023-02-14T18:16:16.320Z,101878.02
2023-02-14T18:19:46.155Z,101879.45
2023-02-14T18:23:15.380Z,101882.69
2023-02-14T18:26:44.708Z,101892.36
2023-02-14T18:30:14.072Z,101894.34
2023-02-14T18:33:43.642Z,101899.77
2023-02-14T18:37:12.879Z,101906.70
2023-02-14T18:40:41.741Z,101913.98
2023-02-14T18:44:10.929Z,101923.11
2023-02-14T18:47:40.063Z,101926.39
2023-02-14T18:51:09.317Z,101932.46
2023-02-14T18:54:38.487Z,101936.42
2023-02-14T18:58:07.888Z,101939.52
2023-02-14T19:01:37.399Z,101946.37
2023-02-14T19:05:06.757Z,101949.00
2023-02-14T19:08:36.307Z,101952.98
2023-02-14T19:12:05.690Z,101959.68
2023-02-14T19:15:34.807Z,101964.87
2023-02-14T19:19:04.241Z,101963.52
2023-02-14T19:22:33.741Z,101966.18
2023-02-14T19:26:05.177Z,101968.33
2023-02-14T19:29:31.256Z,101973.36
2023-02-14T19:32:40.761Z,101980.45
2023-02-14T19:36:13.321Z,101989.69
2023-02-14T19:39:42.590Z,101985.41
2023-02-14T19:43:11.959Z,101985.35
2023-02-14T19:46:41.206Z,101989.77
2023-02-14T19:50:08.956Z,101989.30
2023-02-14T19:53:38.013Z,101991.64
2023-02-14T19:57:07.148Z,101991.47
2023-02-14T20:00:36.778Z,101987.84
2023-02-14T20:04:06.112Z,101989.03
2023-02-14T20:07:34.989Z,101993.75
2023-02-14T20:11:03.736Z,101993.78
2023-02-14T20:14:40.868Z,102002.02
2023-02-14T20:18:16.225Z,101999.50
2023-02-14T20:21:48.144Z,102005.83
2023-02-14T20:25:17.305Z,102004.29
2023-02-14T20:28:39.647Z,102009.30
2023-02-14T20:32:08.970Z,102011.64
2023-02-14T20:35:38.396Z,102014.15
2023-02-14T20:39:07.438Z,102014.28
2023-02-14T20:42:36.741Z,102019.29
2023-02-14T20:46:05.902Z,102023.20
2023-02-14T20:49:34.881Z,102026.64
2023-02-14T20:53:04.762Z,102027.25
2023-02-14T20:56:34.073Z,102030.77
2023-02-14T21:00:03.296Z,102037.58
2023-02-14T21:03:32.837Z,102039.60
2023-02-14T21:07:01.807Z,102043.65
2023-02-14T21:10:31.253Z,102051.82
2023-02-14T21:14:00.685Z,102061.08
2023-02-14T21:17:29.488Z,102064.27
2023-02-14T21:20:58.576Z,102065.07
2023-02-14T21:24:30.874Z,102063.44
2023-02-14T21:28:00.213Z,102076.30
2023-02-14T21:31:29.376Z,102080.17
2023-02-14T21:34:58.492Z,102083.20
2023-02-14T21:38:27.750Z,102088.14
2023-02-14T21:41:57.087Z,102090.62
2023-02-14T21:45:26.054Z,102099.49
2023-02-14T21:48:53.448Z,102099.08
2023-02-14T21:52:22.886Z,102099.32
2023-02-14T21:55:52.216Z,102105.84
2023-02-14T21:59:21.541Z,102105.87
2023-02-14T22:02:50.722Z,102108.48
2023-02-14T22:06:20.629Z,102108.47
2023-02-14T22:09:52.574Z,102107.58
2023-02-14T22:13:22.123Z,102114.64
2023-02-14T22:16:51.486Z,102118.10
2023-02-14T22:20:20.257Z,102116.41
2023-02-14T22:23:49.762Z,102118.11
2023-02-14T22:27:18.687Z,102126.44
2023-02-14T22:30:35.404Z,102124.73
2023-02-14T22:34:04.470Z,102125.33
2023-02-14T22:37:34.800Z,102121.06
2023-02-14T22:41:04.111Z,102131.84
2023-02-14T22:44:33.518Z,102135.14
2023-02-14T22:48:02.465Z,102144.61
2023-02-14T22:51:31.718Z,102146.86
2023-02-14T22:55:04.059Z,102142.27
2023-02-14T22:58:33.436Z,102150.02
2023-02-14T23:02:02.772Z,102154.00
2023-02-14T23:05:32.380Z,102158.14
2023-02-14T23:09:02.090Z,102158.23
2023-02-14T23:12:31.718Z,102158.02
2023-02-14T23:15:59.585Z,102167.20
2023-02-14T23:19:20.274Z,102177.78
2023-02-14T23:22:49.595Z,102178.91
2023-02-14T23:26:21.628Z,102181.06
2023-02-14T23:29:50.681Z,102189.27
2023-02-14T23:33:20.170Z,102192.64
2023-02-14T23:36:49.338Z,102197.05
2023-02-14T23:40:18.338Z,102198.86
2023-02-14T23:43:47.691Z,102210.54
2023-02-14T23:47:16.759Z,102213.31
2023-02-14T23:50:46.007Z,102219.15
2023-02-14T23:54:15.438Z,102220.49
2023-02-14T23:57:45.331Z,102221.07
